createdAt,value
2023-01-10T00:01:37.375Z,9.90
2023-01-10T00:04:05.515Z,10.00
2023-01-10T00:06:34.717Z,10.00
2023-01-10T00:09:02.563Z,10.10
2023-01-10T00:11:47.787Z,10.20
2023-01-10T00:14:15.601Z,10.10
2023-01-10T00:16:43.472Z,10.20
2023-01-10T00:19:11.295Z,10.20
2023-01-10T00:21:40.543Z,10.20
2023-01-10T00:24:17.585Z,10.10
2023-01-10T00:26:49.104Z,10.20
2023-01-10T00:29:17.001Z,10.10
2023-01-10T00:31:44.780Z,10.20
2023-01-10T00:34:12.687Z,10.30
2023-01-10T00:36:42.052Z,10.40
2023-01-10T00:39:12.513Z,10.40
2023-01-10T00:41:58.177Z,10.40
2023-01-10T00:44:26.993Z,10.20
2023-01-10T00:46:55.062Z,10.30
2023-01-10T00:49:23.160Z,10.30
2023-01-10T00:51:52.329Z,10.20
2023-01-10T00:54:20.305Z,10.20
2023-01-10T00:56:48.127Z,10.30
2023-01-10T00:59:16.007Z,10.40
2023-01-10T01:01:43.945Z,10.40
2023-01-10T01:04:11.890Z,10.30
2023-01-10T01:06:39.786Z,10.30
2023-01-10T01:09:08.983Z,10.60
2023-01-10T01:11:36.813Z,10.50
2023-01-10T01:14:04.607Z,10.40
2023-01-10T01:16:32.785Z,10.30
2023-01-10T01:19:00.598Z,10.30
2023-01-10T01:21:28.471Z,10.30
2023-01-10T01:23:57.511Z,10.30
2023-01-10T01:26:27.216Z,10.30
2023-01-10T01:28:55.299Z,10.30
2023-01-10T01:31:23.353Z,10.40
2023-01-10T01:33:51.548Z,10.50
2023-01-10T01:36:20.004Z,10.30
2023-01-10T01:38:47.807Z,10.30
2023-01-10T01:41:32.995Z,10.20
2023-01-10T01:44:04.509Z,10.30
2023-01-10T01:46:34.806Z,10.30
2023-01-10T01:49:05.943Z,10.30
2023-01-10T01:51:34.924Z,10.40
2023-01-10T01:54:05.664Z,10.30
2023-01-10T01:56:38.428Z,10.20
2023-01-10T01:59:12.639Z,10.30
2023-01-10T02:01:42.748Z,10.40
2023-01-10T02:04:16.651Z,10.30
2023-01-10T02:06:47.061Z,10.30
2023-01-10T02:09:21.971Z,10.30
2023-01-10T02:11:50.288Z,10.30
2023-01-10T02:14:21.490Z,10.30
2023-01-10T02:16:49.323Z,10.30
2023-01-10T02:19:25.657Z,10.30
2023-01-10T02:22:28.208Z,10.40
2023-01-10T02:25:24.054Z,10.40
2023-01-10T02:28:12.694Z,10.40
2023-01-10T02:31:07.384Z,10.40
2023-01-10T02:33:40.492Z,10.30
2023-01-10T02:36:21.266Z,10.30
2023-01-10T02:38:58.977Z,10.40
2023-01-10T02:41:36.459Z,10.40
2023-01-10T02:44:09.364Z,10.40
2023-01-10T02:46:39.766Z,10.40
2023-01-10T02:49:08.936Z,10.40
2023-01-10T02:51:36.757Z,10.40
2023-01-10T02:54:08.478Z,10.30
2023-01-10T02:56:56.269Z,10.30
2023-01-10T02:59:57.391Z,10.50
2023-01-10T03:02:37.338Z,10.30
2023-01-10T03:05:16.976Z,10.10
2023-01-10T03:07:53.058Z,10.20
2023-01-10T03:10:26.850Z,10.20
2023-01-10T03:12:59.594Z,10.20
2023-01-10T03:15:31.068Z,10.10
2023-01-10T03:18:02.198Z,10.10
2023-01-10T03:20:35.372Z,10.20
2023-01-10T03:23:06.631Z,10.20
2023-01-10T03:25:38.304Z,10.20
2023-01-10T03:28:12.305Z,10.20
2023-01-10T03:30:45.581Z,10.00
2023-01-10T03:33:16.257Z,10.10
2023-01-10T03:35:57.474Z,10.00
2023-01-10T03:38:31.420Z,10.00
2023-01-10T03:41:02.701Z,10.00
2023-01-10T03:43:57.434Z,10.00
2023-01-10T03:46:31.237Z,9.90
2023-01-10T03:49:00.781Z,9.90
2023-01-10T03:51:31.239Z,9.90
2023-01-10T03:54:01.445Z,10.00
2023-01-10T03:56:29.358Z,10.00
2023-01-10T03:58:57.205Z,9.90
2023-01-10T04:01:25.095Z,9.80
2023-01-10T04:03:53.069Z,9.70
2023-01-10T04:06:21.115Z,9.70
2023-01-10T04:08:50.304Z,10.00
2023-01-10T04:11:18.147Z,9.80
2023-01-10T04:13:45.985Z,9.80
2023-01-10T04:16:13.815Z,9.80
2023-01-10T04:18:41.604Z,9.90
2023-01-10T04:21:09.479Z,9.80
2023-01-10T04:23:37.282Z,9.90
2023-01-10T04:26:06.642Z,9.90
2023-01-10T04:28:34.727Z,9.90
2023-01-10T04:31:02.859Z,9.90
2023-01-10T04:33:30.834Z,10.00
2023-01-10T04:35:58.742Z,9.90
2023-01-10T04:38:26.626Z,9.90
2023-01-10T04:40:55.704Z,9.90
2023-01-10T04:43:25.872Z,10.00
2023-01-10T04:45:53.919Z,10.10
2023-01-10T04:48:21.770Z,10.00
2023-01-10T04:50:52.964Z,10.00
2023-01-10T04:53:21.636Z,10.00
2023-01-10T04:55:49.522Z,9.90
2023-01-10T04:58:17.428Z,9.90
2023-01-10T05:00:46.585Z,10.00
2023-01-10T05:03:16.030Z,10.00
2023-01-10T05:05:43.920Z,10.00
2023-01-10T05:08:11.735Z,10.10
2023-01-10T05:10:39.567Z,10.00
2023-01-10T05:13:07.358Z,10.00
2023-01-10T05:15:35.205Z,10.00
2023-01-10T05:18:04.430Z,10.00
2023-01-10T05:20:32.252Z,9.90
2023-01-10T05:23:00.118Z,9.90
2023-01-10T05:25:27.924Z,9.80
2023-01-10T05:27:55.960Z,10.00
2023-01-10T05:30:23.794Z,10.00
2023-01-10T05:32:51.587Z,9.90
2023-01-10T05:35:20.824Z,10.00
2023-01-10T05:37:48.633Z,10.00
2023-01-10T05:40:16.633Z,10.00
2023-01-10T05:42:44.478Z,10.00
2023-01-10T05:45:12.821Z,10.00
2023-01-10T05:47:40.679Z,10.10
2023-01-10T05:50:10.379Z,10.00
2023-01-10T05:52:40.211Z,10.00
2023-01-10T05:55:09.039Z,9.90
2023-01-10T05:57:36.972Z,10.00
2023-01-10T06:00:06.778Z,10.00
2023-01-10T06:02:34.707Z,10.00
2023-01-10T06:05:02.640Z,10.00
2023-01-10T06:07:32.172Z,10.00
2023-01-10T06:10:01.408Z,10.00
2023-01-10T06:12:29.470Z,10.00
2023-01-10T06:14:57.279Z,9.90
2023-01-10T06:17:25.641Z,10.00
2023-01-10T06:19:53.441Z,10.00
2023-01-10T06:22:21.291Z,10.00
2023-01-10T06:24:49.135Z,9.90
2023-01-10T06:27:18.299Z,9.90
2023-01-10T06:29:46.160Z,10.00
2023-01-10T06:32:14.060Z,10.00
2023-01-10T06:34:41.907Z,9.90
2023-01-10T06:37:09.759Z,10.00
2023-01-10T06:39:37.760Z,10.10
2023-01-10T06:42:05.662Z,10.00
2023-01-10T06:44:34.803Z,10.10
2023-01-10T06:47:02.601Z,10.10
2023-01-10T06:49:30.473Z,10.10
2023-01-10T06:51:58.341Z,10.10
2023-01-10T06:54:26.183Z,10.00
2023-01-10T06:56:54.099Z,10.10
2023-01-10T06:59:21.897Z,10.10
2023-01-10T07:01:51.569Z,10.20
2023-01-10T07:04:19.390Z,10.20
2023-01-10T07:06:47.196Z,10.30
2023-01-10T07:09:15.332Z,10.20
2023-01-10T07:11:43.148Z,10.30
2023-01-10T07:14:11.069Z,10.20
2023-01-10T07:16:38.873Z,10.20
2023-01-10T07:19:08.037Z,10.20
2023-01-10T07:21:35.853Z,10.20
2023-01-10T07:24:04.140Z,10.20
2023-01-10T07:26:31.962Z,10.20
2023-01-10T07:28:59.804Z,10.20
2023-01-10T07:31:27.600Z,10.10
2023-01-10T07:33:55.605Z,10.20
2023-01-10T07:36:24.779Z,10.20
2023-01-10T07:38:52.641Z,10.40
2023-01-10T07:41:20.690Z,10.10
2023-01-10T07:43:48.835Z,10.20
2023-01-10T07:46:16.764Z,10.10
2023-01-10T07:48:46.203Z,10.00
2023-01-10T07:51:14.006Z,10.00
2023-01-10T07:53:43.278Z,10.00
2023-01-10T07:56:11.135Z,10.20
2023-01-10T07:58:39.045Z,10.10
2023-01-10T08:01:07.680Z,9.90
2023-01-10T08:03:36.729Z,9.80
2023-01-10T08:06:06.879Z,9.60
2023-01-10T08:08:35.016Z,9.60
2023-01-10T08:11:04.701Z,9.50
2023-01-10T08:13:33.612Z,9.50
2023-01-10T08:16:05.054Z,9.60
2023-01-10T08:18:33.122Z,9.50
2023-01-10T08:21:01.364Z,9.60
2023-01-10T08:23:29.551Z,9.60
2023-01-10T08:25:59.796Z,9.70
2023-01-10T08:28:29.559Z,9.50
2023-01-10T08:30:57.396Z,9.60
2023-01-10T08:33:27.406Z,9.50
2023-01-10T08:35:55.265Z,9.40
2023-01-10T08:38:23.208Z,9.50
2023-01-10T08:40:51.051Z,9.60
2023-01-10T08:43:18.946Z,9.50
2023-01-10T08:45:48.113Z,9.30
2023-01-10T08:48:16.100Z,9.60
2023-01-10T08:50:44.040Z,9.40
2023-01-10T08:53:13.626Z,9.50
2023-01-10T08:55:41.478Z,9.50
2023-01-10T08:58:10.884Z,9.60
2023-01-10T09:00:38.793Z,9.50
2023-01-10T09:03:08.889Z,9.50
2023-01-10T09:05:36.780Z,9.60
2023-01-10T09:08:05.652Z,9.60
2023-01-10T09:10:33.690Z,9.60
2023-01-10T09:13:01.759Z,9.60
2023-01-10T09:15:32.744Z,9.60
2023-01-10T09:18:02.361Z,9.60
2023-01-10T09:20:32.774Z,9.60
2023-01-10T09:23:05.249Z,9.60
2023-01-10T09:25:33.242Z,9.50
2023-01-10T09:28:02.961Z,9.60
2023-01-10T09:30:31.976Z,9.60
2023-01-10T09:33:00.703Z,9.60
2023-01-10T09:35:31.095Z,9.50
2023-01-10T09:38:01.844Z,9.50
2023-01-10T09:40:40.972Z,9.40
2023-01-10T09:43:17.657Z,9.30
2023-01-10T09:45:54.133Z,9.30
2023-01-10T09:48:27.888Z,9.30
2023-01-10T09:51:10.120Z,9.30
2023-01-10T09:53:43.299Z,9.40
2023-01-10T09:56:13.548Z,9.50
2023-01-10T09:58:43.641Z,9.50
2023-01-10T10:01:17.170Z,9.50
2023-01-10T10:03:52.962Z,9.20
2023-01-10T10:06:24.205Z,9.40
2023-01-10T10:08:52.945Z,9.50
2023-01-10T10:11:42.533Z,9.30
2023-01-10T10:14:26.427Z,9.40
2023-01-10T10:17:07.465Z,9.30
2023-01-10T10:19:52.957Z,9.20
2023-01-10T10:22:30.383Z,9.30
2023-01-10T10:25:07.890Z,9.50
2023-01-10T10:27:41.963Z,9.30
2023-01-10T10:30:26.574Z,9.30
2023-01-10T10:33:25.872Z,9.30
2023-01-10T10:35:57.995Z,9.20
2023-01-10T10:38:30.851Z,9.40
2023-01-10T10:41:00.248Z,9.40
2023-01-10T10:43:32.976Z,9.60
2023-01-10T10:46:06.513Z,9.40
2023-01-10T10:48:37.634Z,9.40
2023-01-10T10:51:09.661Z,9.30
2023-01-10T10:53:38.905Z,9.40
2023-01-10T10:56:12.602Z,9.30
2023-01-10T10:58:43.236Z,9.30
2023-01-10T11:01:14.334Z,9.40
2023-01-10T11:03:46.719Z,9.40
2023-01-10T11:06:16.880Z,9.20
2023-01-10T11:08:50.513Z,9.20
2023-01-10T11:11:22.871Z,9.20
2023-01-10T11:13:56.241Z,9.30
2023-01-10T11:16:27.243Z,9.40
2023-01-10T11:19:21.789Z,9.40
2023-01-10T11:21:53.631Z,9.70
2023-01-10T11:24:29.036Z,9.40
2023-01-10T11:26:58.205Z,9.40
2023-01-10T11:29:29.199Z,9.50
2023-01-10T11:31:58.236Z,9.40
2023-01-10T11:34:29.577Z,9.50
2023-01-10T11:37:00.361Z,9.50
2023-01-10T11:39:31.484Z,9.70
2023-01-10T11:42:19.314Z,9.70
2023-01-10T11:44:47.165Z,9.60
2023-01-10T11:47:17.843Z,9.60
2023-01-10T11:49:45.782Z,9.60
2023-01-10T11:52:21.221Z,9.90
2023-01-10T11:54:51.274Z,9.70
2023-01-10T11:57:22.971Z,9.90
2023-01-10T11:59:55.048Z,9.80
2023-01-10T12:02:26.104Z,9.70
2023-01-10T12:04:56.650Z,9.70
2023-01-10T12:07:24.556Z,9.80
2023-01-10T12:09:59.618Z,9.90
2023-01-10T12:12:30.230Z,9.90
2023-01-10T12:15:00.392Z,9.90
2023-01-10T12:17:31.021Z,10.00
2023-01-10T12:20:01.609Z,9.80
2023-01-10T12:22:33.289Z,9.80
2023-01-10T12:25:06.037Z,9.70
2023-01-10T12:27:34.148Z,9.80
2023-01-10T12:30:06.662Z,9.90
2023-01-10T12:32:40.526Z,9.80
2023-01-10T12:35:15.010Z,9.80
2023-01-10T12:37:48.655Z,9.50
2023-01-10T12:40:26.176Z,9.50
2023-01-10T12:43:15.297Z,9.60
2023-01-10T12:45:48.135Z,9.40
2023-01-10T12:48:22.453Z,9.50
2023-01-10T12:50:54.891Z,9.60
2023-01-10T12:53:34.847Z,9.60
2023-01-10T12:56:07.936Z,9.30
2023-01-10T12:58:42.997Z,9.30
2023-01-10T13:01:14.659Z,9.40
2023-01-10T13:03:43.705Z,9.30
2023-01-10T13:06:20.571Z,9.20
2023-01-10T13:08:49.238Z,9.20
2023-01-10T13:11:23.404Z,9.30
2023-01-10T13:13:57.401Z,9.30
2023-01-10T13:16:33.624Z,9.40
2023-01-10T13:19:23.186Z,9.30
2023-01-10T13:21:52.386Z,9.30
2023-01-10T13:24:23.687Z,9.50
2023-01-10T13:26:56.372Z,9.20
2023-01-10T13:29:26.022Z,9.10
2023-01-10T13:31:57.567Z,9.30
2023-01-10T13:34:28.909Z,9.00
2023-01-10T13:36:59.308Z,9.10
2023-01-10T13:39:32.730Z,9.10
2023-01-10T13:42:49.439Z,9.20
2023-01-10T13:45:26.761Z,9.00
2023-01-10T13:48:26.409Z,9.10
2023-01-10T13:51:07.836Z,9.00
2023-01-10T13:53:58.071Z,9.10
2023-01-10T13:56:41.307Z,8.90
2023-01-10T14:00:06.033Z,8.80
2023-01-10T14:02:34.498Z,8.70
2023-01-10T14:05:05.566Z,8.80
2023-01-10T14:07:42.427Z,8.90
2023-01-10T14:10:19.842Z,8.80
2023-01-10T14:12:52.786Z,8.90
2023-01-10T14:15:28.549Z,8.80
2023-01-10T14:18:01.919Z,8.90
2023-01-10T14:20:31.133Z,8.80
2023-01-10T14:23:03.580Z,8.80
2023-01-10T14:25:33.435Z,8.80
2023-01-10T14:28:02.165Z,8.80
2023-01-10T14:30:33.969Z,8.80
2023-01-10T14:33:06.175Z,8.80
2023-01-10T14:35:39.699Z,8.70
2023-01-10T14:38:15.346Z,8.70
2023-01-10T14:40:45.817Z,8.60
2023-01-10T14:43:16.836Z,8.60
2023-01-10T14:45:52.674Z,8.60
2023-01-10T14:48:29.886Z,8.60
2023-01-10T14:51:18.325Z,8.70
2023-01-10T14:53:46.147Z,8.80
2023-01-10T14:56:22.343Z,8.90
2023-01-10T14:58:50.271Z,8.70
2023-01-10T15:01:24.584Z,8.80
2023-01-10T15:03:53.620Z,8.70
2023-01-10T15:06:21.620Z,8.60
2023-01-10T15:08:57.670Z,8.70
2023-01-10T15:11:28.500Z,8.80
2023-01-10T15:14:00.462Z,8.70
2023-01-10T15:16:30.519Z,8.60
2023-01-10T15:18:58.863Z,8.60
2023-01-10T15:21:26.798Z,8.50
2023-01-10T15:23:54.650Z,8.70
2023-01-10T15:26:28.943Z,8.70
2023-01-10T15:29:12.234Z,8.70
2023-01-10T15:31:42.404Z,8.70
2023-01-10T15:34:12.292Z,8.70
2023-01-10T15:36:45.202Z,8.90
2023-01-10T15:39:19.920Z,8.90
2023-01-10T15:41:48.073Z,8.90
2023-01-10T15:44:40.817Z,8.70
2023-01-10T15:47:36.181Z,8.80
2023-01-10T15:50:04.748Z,8.80
2023-01-10T15:52:32.698Z,8.70
2023-01-10T15:55:00.709Z,8.70
2023-01-10T15:57:33.003Z,8.80
2023-01-10T16:00:01.380Z,8.70
2023-01-10T16:02:32.675Z,8.80
2023-01-10T16:05:09.033Z,8.80
2023-01-10T16:07:44.130Z,8.60
2023-01-10T16:10:20.503Z,8.60
2023-01-10T16:13:05.815Z,8.70
2023-01-10T16:15:35.674Z,9.10
2023-01-10T16:18:03.548Z,8.80
2023-01-10T16:20:36.426Z,8.60
2023-01-10T16:23:06.759Z,8.90
2023-01-10T16:25:38.101Z,8.90
2023-01-10T16:28:06.455Z,8.80
2023-01-10T16:30:35.785Z,8.90
2023-01-10T16:33:10.680Z,8.80
2023-01-10T16:35:40.329Z,9.00
2023-01-10T16:38:09.930Z,8.90
2023-01-10T16:40:40.643Z,8.90
2023-01-10T16:43:19.498Z,8.90
2023-01-10T16:45:48.428Z,8.90
2023-01-10T16:48:17.878Z,9.00
2023-01-10T16:50:48.539Z,9.10
2023-01-10T16:53:18.195Z,9.00
2023-01-10T16:55:48.382Z,9.10
2023-01-10T16:58:17.311Z,9.10
2023-01-10T17:00:47.303Z,9.20
2023-01-10T17:03:17.947Z,9.30
2023-01-10T17:05:47.354Z,9.50
2023-01-10T17:08:17.711Z,9.40
2023-01-10T17:10:47.086Z,9.30
2023-01-10T17:13:18.387Z,9.40
2023-01-10T17:15:46.222Z,9.30
2023-01-10T17:18:13.981Z,9.30
2023-01-10T17:20:41.901Z,9.50
2023-01-10T17:23:12.873Z,9.40
2023-01-10T17:25:40.675Z,9.40
2023-01-10T17:28:08.584Z,9.50
2023-01-10T17:30:36.453Z,9.50
2023-01-10T17:33:05.427Z,9.50
2023-01-10T17:35:33.313Z,9.50
2023-01-10T17:38:01.279Z,9.60
2023-01-10T17:40:30.449Z,9.60
2023-01-10T17:42:58.249Z,9.80
2023-01-10T17:45:26.137Z,9.60
2023-01-10T17:47:53.937Z,9.60
2023-01-10T17:50:21.769Z,9.80
2023-01-10T17:52:50.222Z,9.80
2023-01-10T17:55:18.385Z,9.80
2023-01-10T17:57:47.500Z,9.70
2023-01-10T18:00:16.594Z,9.80
2023-01-10T18:02:44.467Z,9.80
2023-01-10T18:05:12.834Z,10.00
2023-01-10T18:07:40.700Z,10.00
2023-01-10T18:10:09.713Z,10.00
2023-01-10T18:12:38.131Z,9.80
2023-01-10T18:15:08.588Z,9.90
2023-01-10T18:17:36.407Z,10.00
2023-01-10T18:20:04.624Z,10.00
2023-01-10T18:22:49.698Z,9.90
2023-01-10T18:25:17.638Z,9.90
2023-01-10T18:27:50.071Z,10.10
2023-01-10T18:30:22.163Z,10.20
2023-01-10T18:32:50.349Z,10.20
2023-01-10T18:35:18.393Z,10.30
2023-01-10T18:37:46.724Z,10.30
2023-01-10T18:40:14.693Z,10.20
2023-01-10T18:42:43.310Z,10.30
2023-01-10T18:45:11.276Z,10.30
2023-01-10T18:47:40.444Z,10.40
2023-01-10T18:50:08.771Z,10.40
2023-01-10T18:52:36.628Z,10.30
2023-01-10T18:55:04.661Z,10.40
2023-01-10T18:57:33.314Z,10.50
2023-01-10T19:00:01.167Z,10.50
2023-01-10T19:02:29.051Z,11.00
2023-01-10T19:04:58.230Z,10.50
2023-01-10T19:07:26.366Z,10.60
2023-01-10T19:09:54.161Z,10.60
2023-01-10T19:12:22.041Z,10.60
2023-01-10T19:14:49.828Z,10.60
2023-01-10T19:17:18.237Z,10.60
2023-01-10T19:19:46.042Z,10.60
2023-01-10T19:22:15.276Z,10.60
2023-01-10T19:24:43.297Z,10.80
2023-01-10T19:27:11.407Z,10.70
2023-01-10T19:29:39.217Z,10.60
2023-01-10T19:32:07.421Z,10.70
2023-01-10T19:34:35.446Z,10.60
2023-01-10T19:37:03.331Z,10.70
2023-01-10T19:39:32.490Z,10.80
2023-01-10T19:42:00.574Z,10.90
2023-01-10T19:44:28.461Z,10.80
2023-01-10T19:46:56.254Z,10.90
2023-01-10T19:49:24.387Z,10.90
2023-01-10T19:51:53.696Z,11.00
2023-01-10T19:54:21.625Z,11.20
2023-01-10T19:56:50.819Z,11.10
2023-01-10T19:59:18.706Z,11.00
2023-01-10T20:01:47.578Z,11.00
2023-01-10T20:04:15.508Z,11.20
2023-01-10T20:06:43.500Z,11.10
2023-01-10T20:09:14.338Z,11.10
2023-01-10T20:11:46.008Z,11.20
2023-01-10T20:14:16.969Z,11.20
2023-01-10T20:16:45.119Z,11.20
2023-01-10T20:19:13.311Z,11.30
2023-01-10T20:21:42.996Z,11.20
2023-01-10T20:24:13.184Z,11.30
2023-01-10T20:26:41.455Z,11.30
2023-01-10T20:29:09.357Z,11.20
2023-01-10T20:31:38.630Z,11.20
2023-01-10T20:34:06.709Z,11.10
2023-01-10T20:36:34.593Z,11.30
2023-01-10T20:39:02.479Z,11.20
2023-01-10T20:41:31.998Z,11.20
2023-01-10T20:44:00.207Z,11.50
2023-01-10T20:46:30.651Z,11.40
2023-01-10T20:49:02.662Z,11.40
2023-01-10T20:51:32.773Z,11.50
2023-01-10T20:54:00.967Z,11.20
2023-01-10T20:56:30.903Z,11.30
2023-01-10T20:58:59.031Z,11.40
2023-01-10T21:01:34.699Z,11.60
2023-01-10T21:04:05.551Z,11.60
2023-01-10T21:06:34.369Z,11.50
2023-01-10T21:09:02.778Z,11.50
2023-01-10T21:11:30.626Z,11.50
2023-01-10T21:13:58.516Z,11.60
2023-01-10T21:16:26.483Z,11.60
2023-01-10T21:18:54.435Z,11.60
2023-01-10T21:21:23.657Z,11.40
2023-01-10T21:23:54.088Z,11.40
2023-01-10T21:26:22.043Z,11.50
2023-01-10T21:28:49.924Z,11.70
2023-01-10T21:31:19.544Z,11.70
2023-01-10T21:33:48.024Z,11.70
2023-01-10T21:36:16.255Z,11.60
2023-01-10T21:38:45.646Z,11.60
2023-01-10T21:41:35.165Z,11.70
2023-01-10T21:44:03.109Z,11.70
2023-01-10T21:46:31.002Z,11.80
2023-01-10T21:48:58.995Z,11.80
2023-01-10T21:51:26.797Z,11.90
2023-01-10T21:53:55.998Z,12.10
2023-01-10T21:56:23.817Z,11.90
2023-01-10T21:58:52.304Z,12.00
2023-01-10T22:01:20.240Z,11.90
2023-01-10T22:03:49.368Z,12.00
2023-01-10T22:06:17.293Z,12.00
2023-01-10T22:08:45.124Z,12.00
2023-01-10T22:11:14.411Z,12.20
2023-01-10T22:13:42.235Z,12.20
2023-01-10T22:16:10.173Z,12.20
2023-01-10T22:18:38.073Z,12.30
2023-01-10T22:21:06.071Z,12.20
2023-01-10T22:23:34.652Z,12.20
2023-01-10T22:26:04.503Z,12.20
2023-01-10T22:31:01.983Z,12.20
2023-01-10T22:33:31.815Z,12.30
2023-01-10T22:36:04.612Z,12.20
2023-01-10T22:38:32.773Z,12.00
2023-01-10T22:41:07.072Z,12.10
2023-01-10T22:43:34.948Z,12.20
2023-01-10T22:46:04.453Z,12.30
2023-01-10T22:48:32.567Z,12.30
2023-01-10T22:51:01.338Z,12.20
2023-01-10T22:53:29.640Z,12.30
2023-01-10T22:56:00.126Z,12.40
2023-01-10T22:58:28.296Z,12.40
2023-01-10T23:00:56.305Z,12.50
2023-01-10T23:03:25.601Z,12.50
2023-01-10T23:05:56.033Z,12.50
2023-01-10T23:08:23.953Z,12.50
2023-01-10T23:10:53.911Z,12.60
2023-01-10T23:13:21.846Z,12.60
2023-01-10T23:15:56.496Z,12.50
2023-01-10T23:18:26.155Z,12.50
2023-01-10T23:20:54.313Z,12.50
2023-01-10T23:23:22.834Z,12.60
2023-01-10T23:26:01.469Z,12.80
2023-01-10T23:28:30.048Z,12.60
2023-01-10T23:30:58.155Z,12.50
2023-01-10T23:33:27.613Z,12.50
2023-01-10T23:35:55.461Z,12.50
2023-01-10T23:38:23.353Z,12.50
2023-01-10T23:40:51.184Z,12.70
2023-01-10T23:43:19.125Z,12.60
2023-01-10T23:45:47.334Z,12.60
2023-01-10T23:48:15.160Z,12.70
2023-01-10T23:50:44.474Z,12.70
2023-01-10T23:53:12.269Z,12.80
2023-01-10T23:55:40.075Z,12.80
2023-01-10T23:58:08.132Z,12.60
